Time;durP1;ratioP1;P1;durP2;ratioP2;P2;SDS_P1;SDS_P2;PMS_P1;PMS_P2;Temp;Humidity;BMP_temperature;BMP_pressure;BME280_temperature;BME280_humidity;BME280_pressure;Samples;Min_cycle;Max_cycle;Signal;HPM_P1;HPM_P2
2023/08/02 00:01:56;;;;;;;5.45;2.30;;;15.70;99.90;;;;;;5080971;28;20052;-59
2023/08/02 00:04:21;;;;;;;4.93;2.13;;;15.60;99.90;;;;;;5080551;28;20336;-58
2023/08/02 00:06:47;;;;;;;7.10;2.10;;;15.60;99.90;;;;;;5079819;28;20041;-58
2023/08/02 00:09:13;;;;;;;7.60;2.50;;;15.70;99.90;;;;;;5081204;28;20037;-58
2023/08/02 00:11:38;;;;;;;8.50;2.65;;;15.50;99.90;;;;;;5079300;28;20045;-58
2023/08/02 00:14:04;;;;;;;6.68;2.13;;;15.50;99.90;;;;;;5081228;28;20033;-58
2023/08/02 00:16:30;;;;;;;6.65;2.33;;;15.60;99.90;;;;;;5079166;28;20040;-58
2023/08/02 00:18:56;;;;;;;12.88;2.03;;;15.60;99.90;;;;;;5080452;28;20093;-58
2023/08/02 00:21:21;;;;;;;5.60;2.15;;;15.60;99.90;;;;;;5080176;28;20461;-58
2023/08/02 00:23:47;;;;;;;5.80;2.20;;;15.70;99.90;;;;;;5078953;28;20093;-58
2023/08/02 00:26:13;;;;;;;11.63;2.72;;;15.50;99.90;;;;;;5080455;28;20048;-58
2023/08/02 00:28:38;;;;;;;6.90;2.25;;;15.60;99.90;;;;;;5078870;28;20845;-58
2023/08/02 00:31:04;;;;;;;7.25;2.10;;;15.60;99.90;;;;;;5080788;28;20040;-58
2023/08/02 00:33:30;;;;;;;5.95;1.90;;;15.70;99.90;;;;;;5078754;28;20045;-58
2023/08/02 00:35:56;;;;;;;4.82;2.40;;;15.60;99.90;;;;;;5080602;28;20044;-58
2023/08/02 00:38:22;;;;;;;6.38;2.47;;;15.70;99.90;;;;;;5061149;28;20041;-57
2023/08/02 00:40:48;;;;;;;7.28;2.15;;;15.60;99.90;;;;;;5067733;28;20040;-58
2023/08/02 00:43:14;;;;;;;5.97;2.50;;;15.50;99.90;;;;;;5100767;28;20052;-58
2023/08/02 00:45:40;;;;;;;5.40;2.42;;;15.60;99.90;;;;;;5098850;28;20382;-58
2023/08/02 00:48:06;;;;;;;4.90;2.30;;;15.60;99.90;;;;;;5100809;28;20040;-58
2023/08/02 00:50:34;;;;;;;6.70;2.35;;;15.50;99.90;;;;;;5098686;28;20040;-57
2023/08/02 00:53:00;;;;;;;7.47;2.65;;;15.70;99.90;;;;;;5100438;28;20072;-59
2023/08/02 00:55:26;;;;;;;6.15;2.55;;;15.60;99.90;;;;;;5099182;28;20039;-58
2023/08/02 00:57:52;;;;;;;6.85;3.00;;;15.60;99.90;;;;;;5082260;28;20147;-58
2023/08/02 01:00:18;;;;;;;6.97;2.83;;;15.50;99.90;;;;;;5062155;28;20056;-58
2023/08/02 01:02:44;;;;;;;7.50;2.67;;;15.50;99.90;;;;;;5078615;28;20048;-58
2023/08/02 01:05:09;;;;;;;9.32;4.03;;;15.60;99.90;;;;;;5080303;28;20048;-58
2023/08/02 01:07:58;;;;;;;8.15;3.17;;;15.60;99.90;;;;;;5077905;28;20304;-57
2023/08/02 01:10:42;;;;;;;8.32;3.08;;;15.50;99.90;;;;;;5079721;28;20585;-58
2023/08/02 01:13:10;;;;;;;6.07;3.03;;;15.60;99.90;;;;;;5079986;28;20036;-58
2023/08/02 01:15:37;;;;;;;8.45;3.20;;;15.70;99.90;;;;;;5077877;28;20048;-58
2023/08/02 01:18:03;;;;;;;11.65;3.40;;;15.50;99.90;;;;;;5079892;28;20037;-58
2023/08/02 01:20:29;;;;;;;7.80;3.28;;;15.50;99.90;;;;;;5077788;28;20047;-58
2023/08/02 01:22:55;;;;;;;8.43;3.53;;;15.50;99.90;;;;;;5079598;28;20294;-58
2023/08/02 01:25:23;;;;;;;9.65;3.40;;;15.70;99.90;;;;;;5077972;28;20076;-58
2023/08/02 01:27:56;;;;;;;9.63;3.80;;;15.70;99.90;;;;;;5078849;28;21040;-58
2023/08/02 01:30:25;;;;;;;9.30;3.85;;;15.60;99.90;;;;;;5079456;28;20068;-58
2023/08/02 01:32:53;;;;;;;8.50;3.58;;;15.60;99.90;;;;;;5077255;28;20059;-58
2023/08/02 01:35:23;;;;;;;10.35;4.80;;;15.60;99.90;;;;;;5079276;28;20056;-58
2023/08/02 01:37:49;;;;;;;8.20;3.60;;;15.60;99.90;;;;;;5077801;28;20093;-58
2023/08/02 01:40:14;;;;;;;8.05;3.53;;;15.60;99.90;;;;;;5079135;28;20052;-58
2023/08/02 01:42:40;;;;;;;9.25;3.90;;;15.70;99.90;;;;;;5078423;28;20545;-60
2023/08/02 01:45:06;;;;;;;11.23;4.25;;;15.60;99.90;;;;;;5077933;28;20044;-57
2023/08/02 01:47:32;;;;;;;8.93;3.90;;;15.60;99.90;;;;;;5079546;28;20052;-57
2023/08/02 01:49:58;;;;;;;10.90;4.30;;;15.70;99.90;;;;;;5076825;28;20408;-58
2023/08/02 01:52:23;;;;;;;8.50;4.00;;;15.60;99.90;;;;;;5061242;28;20069;-58
2023/08/02 01:54:49;;;;;;;9.52;4.53;;;15.70;99.90;;;;;;5077078;28;20482;-58
2023/08/02 01:57:15;;;;;;;12.52;4.25;;;15.60;99.90;;;;;;5091348;28;20466;-58
2023/08/02 01:59:41;;;;;;;10.27;4.38;;;15.70;99.90;;;;;;5097667;28;20631;-58
2023/08/02 02:02:07;;;;;;;8.70;4.20;;;15.70;99.90;;;;;;5098671;28;20044;-58
2023/08/02 02:04:33;;;;;;;9.90;4.13;;;15.60;99.90;;;;;;5099118;28;20055;-58
2023/08/02 02:06:58;;;;;;;8.98;4.43;;;15.70;99.90;;;;;;5097524;28;20385;-58
2023/08/02 02:09:24;;;;;;;7.38;4.40;;;15.70;99.90;;;;;;5099497;28;20067;-58
2023/08/02 02:11:50;;;;;;;12.18;4.63;;;15.70;99.90;;;;;;5097176;28;20040;-58
2023/08/02 02:14:15;;;;;;;10.48;5.13;;;15.70;99.90;;;;;;5098884;28;20065;-58
2023/08/02 02:16:41;;;;;;;14.07;5.40;;;15.60;99.90;;;;;;5097745;28;20040;-58
2023/08/02 02:19:06;;;;;;;10.20;5.18;;;15.60;99.90;;;;;;5098337;28;20123;-58
2023/08/02 02:21:32;;;;;;;10.73;5.10;;;15.60;99.90;;;;;;5098593;28;20051;-58
2023/08/02 02:23:58;;;;;;;13.05;5.82;;;15.70;99.90;;;;;;5097203;28;20055;-58
2023/08/02 02:26:26;;;;;;;10.75;5.07;;;15.60;99.90;;;;;;5099233;28;20060;-58
2023/08/02 02:28:51;;;;;;;10.48;5.65;;;15.50;99.90;;;;;;5096455;28;20109;-58
2023/08/02 02:31:17;;;;;;;9.55;5.10;;;15.60;99.90;;;;;;5098800;28;20608;-59
2023/08/02 02:33:42;;;;;;;13.40;5.05;;;15.60;99.90;;;;;;5097089;28;20048;-58
2023/08/02 02:36:08;;;;;;;10.57;5.40;;;15.60;99.90;;;;;;5098460;28;20076;-59
2023/08/02 02:38:34;;;;;;;10.15;5.38;;;15.60;99.90;;;;;;5096946;28;20090;-58
2023/08/02 02:40:59;;;;;;;10.80;5.45;;;15.50;99.90;;;;;;5097262;28;20051;-58
2023/08/02 02:43:25;;;;;;;9.95;5.38;;;15.60;99.90;;;;;;5098913;28;20071;-58
2023/08/02 02:45:51;;;;;;;11.38;5.65;;;15.60;99.90;;;;;;5096514;28;20059;-59
2023/08/02 02:48:16;;;;;;;11.68;4.95;;;15.50;99.90;;;;;;5100388;28;20048;-59
2023/08/02 02:50:42;;;;;;;10.68;5.38;;;15.60;99.90;;;;;;5101054;28;20071;-58
2023/08/02 02:53:08;;;;;;;9.65;5.57;;;15.50;99.90;;;;;;5102588;28;20047;-58
2023/08/02 02:55:33;;;;;;;12.05;5.40;;;15.70;99.90;;;;;;5101747;28;20059;-58
2023/08/02 02:57:59;;;;;;;14.50;6.03;;;15.50;99.90;;;;;;5082803;28;20047;-59
2023/08/02 03:00:25;;;;;;;8.93;5.18;;;15.60;99.90;;;;;;5082533;28;20048;-59
2023/08/02 03:02:50;;;;;;;10.63;5.38;;;15.60;99.90;;;;;;5080557;28;20520;-58
2023/08/02 03:05:16;;;;;;;11.05;5.18;;;15.50;99.90;;;;;;5082501;28;20040;-59
2023/08/02 03:07:42;;;;;;;9.70;5.10;;;15.50;99.90;;;;;;5080521;28;20161;-58
2023/08/02 03:10:08;;;;;;;13.75;5.68;;;15.50;99.90;;;;;;5082124;28;20037;-58
2023/08/02 03:12:33;;;;;;;8.23;4.82;;;15.60;99.90;;;;;;5080646;28;20064;-58
2023/08/02 03:14:59;;;;;;;13.93;5.22;;;15.60;99.90;;;;;;5081576;28;20037;-58
2023/08/02 03:17:26;;;;;;;11.23;4.97;;;15.50;99.90;;;;;;5082048;28;20041;-58
2023/08/02 03:19:52;;;;;;;10.05;4.65;;;15.50;99.90;;;;;;5080161;28;20082;-57
2023/08/02 03:22:17;;;;;;;13.20;5.25;;;15.50;99.90;;;;;;5082254;28;20040;-58
2023/08/02 03:24:43;;;;;;;11.18;5.30;;;15.60;99.90;;;;;;5080028;28;20070;-58
2023/08/02 03:27:09;;;;;;;10.15;4.35;;;15.70;99.90;;;;;;5081645;28;20064;-58
2023/08/02 03:29:35;;;;;;;8.00;4.65;;;15.50;99.90;;;;;;5080318;28;20040;-58
2023/08/02 03:32:01;;;;;;;10.82;4.53;;;15.50;99.90;;;;;;5081180;28;20113;-58
2023/08/02 03:34:26;;;;;;;11.38;4.00;;;15.50;99.90;;;;;;5081664;28;20036;-58
2023/08/02 03:36:52;;;;;;;10.70;3.85;;;15.70;99.90;;;;;;5080009;28;20076;-58
2023/08/02 03:39:18;;;;;;;11.70;4.32;;;15.60;99.90;;;;;;5082042;28;20044;-58
2023/08/02 03:41:43;;;;;;;9.35;4.30;;;15.70;99.90;;;;;;5079533;28;20045;-58
2023/08/02 03:44:09;;;;;;;12.40;4.28;;;15.50;99.90;;;;;;5081701;28;20044;-58
2023/08/02 03:46:35;;;;;;;10.98;4.30;;;15.50;99.90;;;;;;5079956;28;20051;-58
2023/08/02 03:49:01;;;;;;;10.30;4.30;;;15.50;99.90;;;;;;5081006;28;20414;-58
2023/08/02 03:51:27;;;;;;;15.45;4.70;;;15.50;99.90;;;;;;5081022;28;20032;-58
2023/08/02 03:53:53;;;;;;;10.95;4.70;;;15.60;99.90;;;;;;5079995;28;20398;-58
2023/08/02 03:56:18;;;;;;;12.15;4.72;;;15.50;99.90;;;;;;5085864;28;20040;-57
2023/08/02 03:58:44;;;;;;;11.63;4.35;;;15.50;99.90;;;;;;5081067;28;20115;-58
2023/08/02 04:01:09;;;;;;;15.07;4.68;;;15.50;99.90;;;;;;5101727;28;20055;-57
2023/08/02 04:03:35;;;;;;;11.98;4.68;;;15.50;99.90;;;;;;5099978;28;20036;-57
2023/08/02 04:06:01;;;;;;;11.02;4.90;;;15.50;99.90;;;;;;5101390;28;20048;-58
2023/08/02 04:08:26;;;;;;;12.05;4.40;;;15.30;99.90;;;;;;5100637;28;20052;-57
2023/08/02 04:10:52;;;;;;;12.52;4.70;;;15.40;99.90;;;;;;5082042;28;20499;-58
2023/08/02 04:13:18;;;;;;;13.57;4.95;;;15.30;99.90;;;;;;5101545;28;20040;-58
2023/08/02 04:15:43;;;;;;;14.88;5.10;;;15.50;99.90;;;;;;5099520;28;20059;-58
2023/08/02 04:18:09;;;;;;;12.48;4.93;;;15.40;99.90;;;;;;5101199;28;20105;-58
2023/08/02 04:20:40;;;;;;;11.70;5.18;;;15.40;99.90;;;;;;5099382;28;20070;-58
2023/08/02 04:23:06;;;;;;;19.45;5.78;;;15.40;99.90;;;;;;5100883;28;20044;-58
2023/08/02 04:25:32;;;;;;;11.80;5.18;;;15.40;99.90;;;;;;5100031;28;20051;-57
2023/08/02 04:27:57;;;;;;;14.68;5.00;;;15.30;99.90;;;;;;5100045;28;20119;-57
2023/08/02 04:30:23;;;;;;;15.77;5.75;;;15.40;99.90;;;;;;5101192;28;20051;-57
2023/08/02 04:32:50;;;;;;;13.10;5.53;;;15.40;99.90;;;;;;5098749;28;20091;-58
2023/08/02 04:35:16;;;;;;;17.02;6.20;;;15.40;99.90;;;;;;5101141;28;20044;-58
2023/08/02 04:37:42;;;;;;;16.08;5.82;;;15.40;99.90;;;;;;5098800;28;20097;-58
2023/08/02 04:40:08;;;;;;;18.00;6.20;;;15.30;99.90;;;;;;5100854;28;20044;-58
2023/08/02 04:42:34;;;;;;;15.05;5.50;;;15.40;99.90;;;;;;5099717;28;20075;-58
2023/08/02 04:45:00;;;;;;;12.60;6.00;;;15.30;99.90;;;;;;5099880;28;20043;-57
2023/08/02 04:47:25;;;;;;;18.02;5.78;;;15.30;99.90;;;;;;5082484;28;20052;-58
2023/08/02 04:49:51;;;;;;;22.42;7.55;;;15.40;99.90;;;;;;5098687;28;20082;-57
2023/08/02 04:52:16;;;;;;;18.63;6.55;;;15.30;99.90;;;;;;5100700;28;20056;-56
2023/08/02 04:54:42;;;;;;;16.23;6.55;;;15.40;99.90;;;;;;5080239;28;20047;-58
2023/08/02 04:57:08;;;;;;;17.35;6.45;;;15.40;99.90;;;;;;5088893;28;20040;-58
2023/08/02 04:59:34;;;;;;;13.73;6.18;;;15.30;99.90;;;;;;5078859;28;20048;-57
2023/08/02 05:02:00;;;;;;;12.93;7.00;;;15.30;99.90;;;;;;5079601;28;20051;-58
2023/08/02 05:04:25;;;;;;;18.00;6.82;;;15.20;99.90;;;;;;5080281;28;20044;-57
2023/08/02 05:06:51;;;;;;;18.90;6.88;;;15.30;99.90;;;;;;5078130;28;20040;-58
2023/08/02 05:09:17;;;;;;;15.45;6.85;;;15.40;99.90;;;;;;5080516;28;20476;-58
2023/08/02 05:11:43;;;;;;;14.38;6.40;;;15.30;99.90;;;;;;5077339;28;20058;-58
2023/08/02 05:14:09;;;;;;;14.60;7.28;;;15.40;99.90;;;;;;5079972;28;20467;-57
2023/08/02 05:16:36;;;;;;;15.07;6.70;;;15.40;99.90;;;;;;5078346;28;20040;-58
2023/08/02 05:19:03;;;;;;;17.23;6.22;;;15.40;99.90;;;;;;5077533;28;20048;-58
2023/08/02 05:21:29;;;;;;;12.68;6.00;;;15.50;99.90;;;;;;5075714;28;20032;-58
2023/08/02 05:23:55;;;;;;;16.63;5.97;;;15.50;99.90;;;;;;5074331;28;20056;-58
2023/08/02 05:26:22;;;;;;;18.73;7.05;;;15.40;99.90;;;;;;5058327;28;20621;-58
2023/08/02 05:28:48;;;;;;;17.40;7.20;;;15.40;99.90;;;;;;5073808;28;20059;-58
2023/08/02 05:31:14;;;;;;;16.00;6.22;;;15.40;99.90;;;;;;5075436;28;20242;-58
2023/08/02 05:33:40;;;;;;;17.10;7.57;;;15.50;99.90;;;;;;5073792;28;20049;-58
2023/08/02 05:36:06;;;;;;;16.02;7.82;;;15.50;99.90;;;;;;5075096;28;20041;-56
2023/08/02 05:38:36;;;;;;;14.63;6.50;;;15.40;99.90;;;;;;5075001;28;20045;-57
2023/08/02 05:41:04;;;;;;;13.98;6.55;;;15.50;99.90;;;;;;5074115;28;20052;-56
2023/08/02 05:43:31;;;;;;;15.73;7.72;;;15.50;99.90;;;;;;5075386;28;20036;-58
2023/08/02 05:45:57;;;;;;;14.45;6.43;;;15.60;99.90;;;;;;5055455;28;20048;-58
2023/08/02 05:48:25;;;;;;;16.55;6.72;;;15.60;99.90;;;;;;5075076;28;20048;-58
2023/08/02 05:50:52;;;;;;;15.00;6.55;;;15.60;99.90;;;;;;5073841;28;20099;-58
2023/08/02 05:53:17;;;;;;;15.45;6.82;;;15.60;99.90;;;;;;5074962;28;20040;-59
2023/08/02 05:55:43;;;;;;;18.67;7.03;;;15.70;99.90;;;;;;5074543;28;20709;-60
2023/08/02 05:58:09;;;;;;;15.13;7.00;;;15.90;99.90;;;;;;5093643;28;20044;-58
2023/08/02 06:00:35;;;;;;;16.73;7.60;;;15.80;99.90;;;;;;5096129;28;20055;-58
2023/08/02 06:03:00;;;;;;;13.75;6.38;;;15.90;99.90;;;;;;5093437;28;20054;-59
2023/08/02 06:05:26;;;;;;;20.15;8.32;;;15.90;99.90;;;;;;5093135;28;20047;-59
2023/08/02 06:07:52;;;;;;;17.58;7.22;;;15.80;99.90;;;;;;5091126;28;20075;-58
2023/08/02 06:10:18;;;;;;;15.57;6.88;;;15.90;99.90;;;;;;5095023;28;20342;-58
2023/08/02 06:12:44;;;;;;;17.08;6.93;;;16.00;99.90;;;;;;5094471;28;20093;-57
2023/08/02 06:15:10;;;;;;;16.25;7.45;;;16.10;99.90;;;;;;5094195;28;20052;-58
2023/08/02 06:17:36;;;;;;;18.50;7.82;;;16.30;99.90;;;;;;5095775;28;20044;-58
2023/08/02 06:20:02;;;;;;;15.68;6.97;;;16.50;99.90;;;;;;5092186;28;20055;-58
2023/08/02 06:22:28;;;;;;;17.77;6.78;;;16.30;99.90;;;;;;5095256;28;20097;-58
2023/08/02 06:24:54;;;;;;;14.43;6.80;;;16.40;99.90;;;;;;5093242;28;20137;-58
2023/08/02 06:27:20;;;;;;;14.18;6.57;;;16.30;99.90;;;;;;5076842;28;20119;-58
2023/08/02 06:29:45;;;;;;;14.90;7.20;;;16.20;99.90;;;;;;5076091;28;20056;-58
2023/08/02 06:32:11;;;;;;;14.65;7.75;;;16.20;99.90;;;;;;5093659;28;20104;-58
2023/08/02 06:34:37;;;;;;;15.75;7.30;;;16.20;99.90;;;;;;5076721;28;20056;-58
2023/08/02 06:37:03;;;;;;;15.60;7.78;;;16.20;99.90;;;;;;5093047;28;20032;-57
2023/08/02 06:39:28;;;;;;;14.52;7.70;;;16.20;99.90;;;;;;5095347;28;20052;-58
2023/08/02 06:41:54;;;;;;;16.35;7.35;;;16.30;99.90;;;;;;5093002;28;20059;-58
2023/08/02 06:44:20;;;;;;;18.27;7.32;;;16.30;99.90;;;;;;5094378;28;20044;-58
2023/08/02 06:46:45;;;;;;;14.57;7.43;;;16.30;99.90;;;;;;5093327;28;20059;-58
2023/08/02 06:49:11;;;;;;;17.13;8.48;;;16.50;99.90;;;;;;5093709;28;20048;-58
2023/08/02 06:51:37;;;;;;;13.63;8.40;;;16.40;99.90;;;;;;5094865;28;20052;-57
2023/08/02 06:54:02;;;;;;;16.95;8.15;;;16.30;99.90;;;;;;5093039;28;20048;-58
2023/08/02 06:56:28;;;;;;;13.95;8.18;;;16.40;99.90;;;;;;5094370;28;20036;-58
2023/08/02 06:58:54;;;;;;;16.13;8.40;;;16.40;99.90;;;;;;5074505;28;20059;-58
2023/08/02 07:01:21;;;;;;;17.23;9.75;;;16.50;99.90;;;;;;5094717;28;20067;-58
2023/08/02 07:03:48;;;;;;;16.33;8.75;;;16.40;99.90;;;;;;5093199;28;20044;-58
2023/08/02 07:06:16;;;;;;;16.77;9.25;;;16.40;99.90;;;;;;5094179;28;20052;-58
2023/08/02 07:08:42;;;;;;;14.55;9.30;;;16.30;99.90;;;;;;5094029;28;20115;-58
2023/08/02 07:11:08;;;;;;;15.80;9.85;;;16.40;99.90;;;;;;5088488;28;20048;-55
2023/08/02 07:13:36;;;;;;;15.52;8.88;;;16.40;99.90;;;;;;5084949;28;20142;-57
2023/08/02 07:16:02;;;;;;;19.42;9.60;;;16.50;99.90;;;;;;5081335;28;20036;-58
2023/08/02 07:18:28;;;;;;;16.00;9.77;;;16.50;99.90;;;;;;5094417;28;20705;-58
2023/08/02 07:20:54;;;;;;;17.42;8.90;;;16.40;99.90;;;;;;5092770;28;20087;-58
2023/08/02 07:23:22;;;;;;;16.77;8.18;;;16.50;99.90;;;;;;5093556;28;20036;-58
2023/08/02 07:25:48;;;;;;;13.02;8.63;;;16.60;99.90;;;;;;5092640;28;20054;-56
2023/08/02 07:28:14;;;;;;;14.80;8.35;;;16.60;99.90;;;;;;5092871;28;20036;-58
2023/08/02 07:30:39;;;;;;;19.35;8.15;;;16.60;99.90;;;;;;5094490;28;20039;-58
2023/08/02 07:33:05;;;;;;;13.43;7.45;;;16.50;99.90;;;;;;5092061;28;20044;-58
2023/08/02 07:35:35;;;;;;;13.23;7.45;;;16.50;99.90;;;;;;5097491;28;20071;-58
2023/08/02 07:38:01;;;;;;;18.27;7.85;;;16.50;99.90;;;;;;5096678;28;20036;-57
2023/08/02 07:40:27;;;;;;;16.65;7.75;;;16.50;99.90;;;;;;5097542;28;20051;-58
2023/08/02 07:42:53;;;;;;;11.65;7.32;;;16.60;99.90;;;;;;5097509;28;20059;-58
2023/08/02 07:45:18;;;;;;;13.80;6.75;;;16.40;99.90;;;;;;5095860;28;20052;-58
2023/08/02 07:47:44;;;;;;;12.77;6.30;;;16.50;99.90;;;;;;5098133;28;20040;-58
2023/08/02 07:50:09;;;;;;;10.00;5.40;;;16.40;99.90;;;;;;5095981;28;20040;-58
2023/08/02 07:52:35;;;;;;;11.65;6.55;;;16.40;99.90;;;;;;5097789;28;20040;-58
2023/08/02 07:55:01;;;;;;;11.15;5.95;;;16.50;99.90;;;;;;5096011;28;20108;-59
2023/08/02 07:57:30;;;;;;;15.07;6.07;;;16.60;99.90;;;;;;5083338;28;20040;-58
2023/08/02 07:59:57;;;;;;;11.38;5.63;;;16.60;99.90;;;;;;5076701;28;20101;-58
2023/08/02 08:02:25;;;;;;;12.90;5.60;;;16.60;99.90;;;;;;5075870;28;20131;-58
2023/08/02 08:04:51;;;;;;;15.43;4.90;;;16.50;99.90;;;;;;5077503;28;20051;-57
2023/08/02 08:07:17;;;;;;;11.00;5.30;;;16.50;99.90;;;;;;5074873;28;20051;-57
2023/08/02 08:09:43;;;;;;;12.05;5.30;;;16.60;99.90;;;;;;5077685;28;20048;-57
2023/08/02 08:12:09;;;;;;;10.23;5.38;;;16.50;99.90;;;;;;5075519;28;20041;-58
2023/08/02 08:14:35;;;;;;;12.82;5.15;;;16.60;99.90;;;;;;5076650;28;20290;-58
2023/08/02 08:17:01;;;;;;;13.70;5.53;;;16.50;99.90;;;;;;5076444;28;20048;-58
2023/08/02 08:19:27;;;;;;;11.70;4.35;;;16.50;99.90;;;;;;5074761;28;20044;-58
2023/08/02 08:21:54;;;;;;;11.93;4.20;;;16.50;99.90;;;;;;5059221;28;20048;-58
2023/08/02 08:24:20;;;;;;;11.68;4.38;;;16.50;99.90;;;;;;5074854;28;20064;-58
2023/08/02 08:26:46;;;;;;;10.45;4.65;;;16.50;99.90;;;;;;5076777;28;20052;-59
2023/08/02 08:29:11;;;;;;;12.13;4.93;;;16.20;99.90;;;;;;5077690;28;20116;-59
2023/08/02 08:31:38;;;;;;;11.35;4.43;;;16.20;99.90;;;;;;5092881;28;20048;-60
2023/08/02 08:34:04;;;;;;;10.68;4.15;;;16.30;99.90;;;;;;5096456;28;20052;-60
2023/08/02 08:36:30;;;;;;;10.10;4.57;;;16.30;99.90;;;;;;5095736;28;20051;-61
2023/08/02 08:38:59;;;;;;;10.25;5.10;;;16.10;99.90;;;;;;5097633;28;20040;-61
2023/08/02 08:41:24;;;;;;;11.95;4.72;;;16.00;99.90;;;;;;5094909;28;20051;-61
2023/08/02 08:43:51;;;;;;;9.93;4.93;;;16.00;99.90;;;;;;5096541;28;20040;-61
2023/08/02 08:46:18;;;;;;;11.63;4.88;;;15.90;99.90;;;;;;5093998;28;20044;-61
2023/08/02 08:48:44;;;;;;;14.93;4.82;;;15.80;99.90;;;;;;5096463;28;20095;-61
2023/08/02 08:51:11;;;;;;;11.80;4.47;;;15.90;99.90;;;;;;5095934;28;20071;-60
2023/08/02 08:53:42;;;;;;;13.10;4.55;;;15.90;99.90;;;;;;5095340;28;20048;-61
2023/08/02 08:56:08;;;;;;;11.70;4.80;;;15.90;99.90;;;;;;5093556;28;20399;-60
2023/08/02 08:58:35;;;;;;;11.82;4.53;;;15.80;99.90;;;;;;5074553;28;20068;-61
2023/08/02 09:01:03;;;;;;;9.43;4.35;;;15.90;99.90;;;;;;5041700;28;20040;-65
2023/08/02 09:03:29;;;;;;;9.32;4.53;;;15.90;99.90;;;;;;5074858;28;20048;-67
2023/08/02 09:06:00;;;;;;;9.30;4.50;;;15.80;99.90;;;;;;5076128;28;20426;-70
2023/08/02 09:08:26;;;;;;;10.25;4.53;;;15.90;99.90;;;;;;5075454;28;20109;-66
2023/08/02 09:10:52;;;;;;;10.65;4.70;;;15.80;99.90;;;;;;5074540;28;20045;-68
2023/08/02 09:13:22;;;;;;;12.55;4.63;;;15.80;99.90;;;;;;5081911;28;20036;-68
2023/08/02 09:16:07;;;;;;;8.38;4.53;;;15.70;99.90;;;;;;5076656;28;20104;-66
2023/08/02 09:18:40;;;;;;;14.30;4.20;;;15.70;99.90;;;;;;5076018;28;20048;-67
2023/08/02 09:21:08;;;;;;;12.73;4.78;;;15.60;99.90;;;;;;5082434;28;20342;-65
2023/08/02 09:23:33;;;;;;;10.10;4.35;;;15.80;99.90;;;;;;5076783;28;20044;-65
2023/08/02 09:26:15;;;;;;;10.48;4.07;;;15.70;99.90;;;;;;5096478;28;20052;-65
2023/08/02 09:28:57;;;;;;;;;;;15.70;99.90;;;;;;5094869;28;20047;-64
2023/08/02 09:31:22;;;;;;;12.23;5.63;;;15.80;99.90;;;;;;5095805;28;19920;-63
2023/08/02 09:33:52;;;;;;;10.00;4.70;;;15.80;99.90;;;;;;5094234;28;20101;-62
2023/08/02 09:36:36;;;;;;;12.23;4.47;;;15.70;99.90;;;;;;5094833;28;20112;-63
2023/08/02 09:39:10;;;;;;;11.25;4.50;;;15.70;99.90;;;;;;5077977;28;20555;-63
2023/08/02 09:41:37;;;;;;;12.48;4.50;;;15.70;99.90;;;;;;5093971;28;20092;-64
2023/08/02 09:44:02;;;;;;;8.32;4.30;;;15.90;99.90;;;;;;5095341;28;20510;-65
2023/08/02 09:46:30;;;;;;;9.50;4.78;;;16.00;99.90;;;;;;5093964;28;20044;-64
2023/08/02 09:48:57;;;;;;;11.20;4.70;;;16.00;99.90;;;;;;5094416;28;20546;-65
2023/08/02 09:51:40;;;;;;;11.48;4.75;;;16.10;99.90;;;;;;5095293;28;20067;-66
2023/08/02 09:54:10;;;;;;;10.57;4.95;;;16.10;99.90;;;;;;5093279;28;20072;-68
2023/08/02 09:56:38;;;;;;;10.48;4.80;;;16.00;99.90;;;;;;5087976;28;20044;-68
2023/08/02 09:59:05;;;;;;;9.18;4.95;;;16.00;99.90;;;;;;5073340;28;20049;-67
2023/08/02 10:01:32;;;;;;;11.15;5.40;;;16.10;99.90;;;;;;5075118;28;20072;-66
2023/08/02 10:04:01;;;;;;;9.85;4.75;;;16.00;99.90;;;;;;5074282;28;20045;-64
2023/08/02 10:06:38;;;;;;;12.07;5.53;;;16.00;99.90;;;;;;5073901;28;20048;-63
2023/08/02 10:09:07;;;;;;;10.80;4.80;;;16.00;99.90;;;;;;5074725;28;20082;-66
2023/08/02 10:11:52;;;;;;;10.95;5.47;;;15.90;99.90;;;;;;5073107;28;20420;-66
2023/08/02 10:14:19;;;;;;;10.85;4.90;;;15.90;99.90;;;;;;5074943;28;20713;-66
2023/08/02 10:16:45;;;;;;;9.50;5.18;;;15.90;99.90;;;;;;5055714;28;20044;-65
2023/08/02 10:19:12;;;;;;;11.40;5.20;;;15.90;99.90;;;;;;5073383;28;20053;-65
2023/08/02 10:21:39;;;;;;;12.02;5.53;;;15.80;99.90;;;;;;5075032;28;20458;-64
2023/08/02 10:24:06;;;;;;;11.60;6.13;;;15.90;99.90;;;;;;5072897;28;20108;-64
2023/08/02 10:26:32;;;;;;;9.25;5.55;;;15.90;99.90;;;;;;5075257;28;20052;-65
2023/08/02 10:28:59;;;;;;;13.02;5.60;;;15.90;99.90;;;;;;5072760;28;20589;-67
2023/08/02 10:31:26;;;;;;;9.95;5.75;;;15.90;99.90;;;;;;5074706;28;20100;-67
2023/08/02 10:33:53;;;;;;;9.32;5.57;;;16.00;99.90;;;;;;5073494;28;20052;-67
2023/08/02 10:36:18;;;;;;;8.55;5.53;;;15.90;99.90;;;;;;5055499;28;20060;-68
2023/08/02 10:38:47;;;;;;;10.57;5.65;;;16.00;99.90;;;;;;5075016;28;20044;-68
2023/08/02 10:41:19;;;;;;;8.90;5.05;;;16.20;99.90;;;;;;5072954;28;20123;-67
2023/08/02 10:43:53;;;;;;;8.88;5.50;;;16.10;99.90;;;;;;5074697;28;20048;-68
2023/08/02 10:46:22;;;;;;;10.95;5.57;;;16.30;99.90;;;;;;5072480;28;20060;-68
2023/08/02 10:48:49;;;;;;;9.38;5.90;;;16.10;99.90;;;;;;5073764;28;20562;-69
2023/08/02 10:51:27;;;;;;;7.20;4.75;;;16.30;99.90;;;;;;5055342;28;20052;-69
2023/08/02 10:54:14;;;;;;;8.20;5.30;;;16.30;99.90;;;;;;5072875;28;20102;-69
2023/08/02 10:56:53;;;;;;;9.90;4.93;;;16.20;99.90;;;;;;5063822;28;20040;-70
2023/08/02 10:59:37;;;;;;;8.30;4.32;;;16.20;99.90;;;;;;5092947;28;20107;-70
2023/08/02 11:02:09;;;;;;;7.28;3.75;;;16.20;99.90;;;;;;5093761;28;20079;-70
2023/08/02 11:04:37;;;;;;;7.65;3.90;;;16.30;99.90;;;;;;5094964;28;20044;-71
2023/08/02 11:07:22;;;;;;;7.25;3.97;;;16.30;99.90;;;;;;5092234;28;20226;-68
2023/08/02 11:09:54;;;;;;;7.32;3.47;;;16.40;99.90;;;;;;5078251;28;20071;-67
2023/08/02 11:12:20;;;;;;;;;;;16.30;99.90;;;;;;5097912;28;20047;-65
2023/08/02 11:14:49;;;;;;;5.93;2.90;;;16.30;99.90;;;;;;5097741;28;19920;-65
2023/08/02 11:17:20;;;;;;;5.30;2.53;;;16.40;99.90;;;;;;5080625;28;20058;-64
2023/08/02 11:19:48;;;;;;;7.72;3.33;;;16.50;99.90;;;;;;5096278;28;20084;-63
2023/08/02 11:22:14;;;;;;;5.22;2.53;;;16.50;99.90;;;;;;5099035;28;20083;-64
2023/08/02 11:24:56;;;;;;;5.00;2.28;;;16.40;99.90;;;;;;5096492;28;20044;-62
2023/08/02 11:27:24;;;;;;;5.18;2.17;;;16.30;99.90;;;;;;5097845;28;20040;-63
2023/08/02 11:29:59;;;;;;;5.35;2.17;;;16.40;99.90;;;;;;5097854;28;20516;-63
2023/08/02 11:32:25;;;;;;;5.13;2.05;;;16.60;99.90;;;;;;5095911;28;20392;-62
2023/08/02 11:34:51;;;;;;;5.40;2.40;;;16.60;99.90;;;;;;5098497;28;20047;-61
2023/08/02 11:37:18;;;;;;;5.65;2.20;;;16.40;99.90;;;;;;5096186;28;20595;-62
2023/08/02 11:39:56;;;;;;;4.85;2.20;;;16.60;99.90;;;;;;5097875;28;20063;-61
2023/08/02 11:42:22;;;;;;;4.70;1.90;;;16.50;99.90;;;;;;5078410;28;20078;-61
2023/08/02 11:44:48;;;;;;;4.70;1.95;;;16.60;99.90;;;;;;5076363;28;20048;-61
2023/08/02 11:47:14;;;;;;;4.90;1.80;;;16.50;99.90;;;;;;5077644;28;20048;-61
2023/08/02 11:49:56;;;;;;;6.40;2.28;;;16.70;99.90;;;;;;5075595;28;20160;-61
2023/08/02 11:52:29;;;;;;;5.07;1.67;;;16.60;99.90;;;;;;5083114;28;20058;-61
2023/08/02 11:54:55;;;;;;;4.28;1.80;;;16.70;99.90;;;;;;5096080;28;20047;-63
2023/08/02 11:57:23;;;;;;;5.07;2.05;;;16.70;99.90;;;;;;5083038;28;20106;-62
2023/08/02 11:59:56;;;;;;;4.53;2.20;;;17.00;99.90;;;;;;5078057;28;20075;-60
2023/08/02 12:02:34;;;;;;;4.95;2.20;;;17.20;99.90;;;;;;5091759;28;20055;-60
2023/08/02 12:05:05;;;;;;;5.50;2.38;;;17.40;99.90;;;;;;5101398;28;20459;-60
2023/08/02 12:07:33;;;;;;;4.55;2.25;;;17.50;99.90;;;;;;5099453;28;20052;-59
2023/08/02 12:10:01;;;;;;;4.75;1.92;;;17.90;99.90;;;;;;5100943;28;20488;-60
2023/08/02 12:12:31;;;;;;;4.20;1.60;;;18.20;99.90;;;;;;5100385;28;20051;-59
2023/08/02 12:14:58;;;;;;;3.72;1.63;;;18.10;99.90;;;;;;5100166;28;20050;-60
2023/08/02 12:17:25;;;;;;;3.70;1.63;;;18.20;99.90;;;;;;5101233;28;20097;-60
2023/08/02 12:19:51;;;;;;;4.97;1.90;;;18.10;99.90;;;;;;5098140;28;20059;-59
2023/08/02 12:22:18;;;;;;;3.88;2.00;;;18.10;99.90;;;;;;5101152;28;20462;-59
2023/08/02 12:24:44;;;;;;;4.72;1.75;;;18.20;99.90;;;;;;5099076;28;20048;-59
2023/08/02 12:27:18;;;;;;;4.50;1.80;;;18.40;99.90;;;;;;5100979;28;20392;-59
2023/08/02 12:29:45;;;;;;;4.30;1.88;;;18.40;99.90;;;;;;5081410;28;20090;-59
2023/08/02 12:32:26;;;;;;;4.60;1.90;;;18.40;99.90;;;;;;5099334;28;20093;-59
2023/08/02 12:34:52;;;;;;;5.50;2.03;;;18.20;99.90;;;;;;5100709;28;20047;-59
2023/08/02 12:37:18;;;;;;;5.03;2.00;;;18.40;99.90;;;;;;5098965;28;20505;-59
2023/08/02 12:39:43;;;;;;;4.05;1.60;;;18.40;99.90;;;;;;5100074;28;20094;-59
2023/08/02 12:42:09;;;;;;;4.05;1.70;;;18.40;99.90;;;;;;5099291;28;20036;-58